Time;durP1;ratioP1;P1;durP2;ratioP2;P2;SDS_P1;SDS_P2;PMS_P1;PMS_P2;Temp;Humidity;BMP_temperature;BMP_pressure;BME280_temperature;BME280_humidity;BME280_pressure;Samples;Min_cycle;Max_cycle;Signal;HPM_P1;HPM_P2
2023/02/05 00:00:52;;;;;;;;;;;26.90;77.50;;;;;;5067456;28;20334;-63
2023/02/05 00:03:18;;;;;;;;;;;27.00;76.80;;;;;;5067161;28;20060;-59
2023/02/05 00:05:45;;;;;;;;;;;26.90;76.70;;;;;;5067031;28;19955;-61
2023/02/05 00:08:11;;;;;;;;;;;27.00;75.80;;;;;;5067622;28;20352;-62
2023/02/05 00:10:37;;;;;;;;;;;27.10;76.20;;;;;;5067792;28;19965;-59
2023/02/05 00:13:04;;;;;;;;;;;27.30;77.10;;;;;;5066962;28;19912;-58
2023/02/05 00:15:30;;;;;;;;;;;27.60;76.10;;;;;;5067153;28;19919;-60
2023/02/05 00:17:57;;;;;;;;;;;28.00;75.10;;;;;;5067171;28;20290;-65
2023/02/05 00:20:23;;;;;;;;;;;28.20;74.40;;;;;;5068248;28;20302;-66
2023/02/05 00:22:50;;;;;;;;;;;28.40;74.00;;;;;;5067050;28;19939;-65
2023/02/05 00:25:16;;;;;;;;;;;28.10;72.60;;;;;;5065398;28;19914;-62
2023/02/05 00:27:42;;;;;;;;;;;28.30;73.70;;;;;;5066153;28;19926;-64
2023/02/05 00:30:09;;;;;;;;;;;28.10;71.10;;;;;;5066325;28;19912;-63
2023/02/05 00:32:36;;;;;;;;;;;28.20;72.30;;;;;;5067341;28;20784;-61
2023/02/05 00:35:02;;;;;;;;;;;28.60;72.30;;;;;;5067140;28;19916;-63
2023/02/05 00:37:29;;;;;;;;;;;28.30;72.30;;;;;;5066253;28;19965;-59
2023/02/05 00:39:55;;;;;;;;;;;28.30;71.60;;;;;;5066709;28;20447;-59
2023/02/05 00:42:22;;;;;;;;;;;28.60;71.70;;;;;;5068496;28;19919;-65
2023/02/05 00:44:48;;;;;;;;;;;29.00;72.00;;;;;;5066121;28;19933;-64
2023/02/05 00:47:14;;;;;;;;;;;29.10;69.40;;;;;;5064746;28;19912;-66
2023/02/05 00:49:41;;;;;;;;;;;29.10;68.20;;;;;;5066102;28;19915;-64
2023/02/05 00:52:07;;;;;;;;;;;29.10;68.30;;;;;;5065639;28;20367;-66
2023/02/05 00:54:34;;;;;;;;;;;29.40;66.40;;;;;;5062511;28;19913;-66
2023/02/05 00:57:00;;;;;;;;;;;29.50;64.60;;;;;;5053819;28;19983;-66
2023/02/05 00:59:26;;;;;;;;;;;29.10;66.20;;;;;;5066312;28;19921;-59
2023/02/05 01:01:53;;;;;;;;;;;28.90;65.70;;;;;;5066173;28;19960;-65
2023/02/05 01:04:19;;;;;;;;;;;28.70;67.00;;;;;;5064400;28;19919;-58
2023/02/05 01:06:45;;;;;;;;;;;29.00;68.20;;;;;;5065096;28;20010;-65
2023/02/05 01:09:15;;;;;;;;;;;29.50;66.70;;;;;;5047413;28;19909;-64
2023/02/05 01:11:41;;;;;;;;;;;29.70;66.40;;;;;;5060287;28;20011;-59
2023/02/05 01:14:08;;;;;;;;;;;29.70;64.40;;;;;;5061809;28;19970;-60
2023/02/05 01:16:34;;;;;;;;;;;30.00;66.20;;;;;;5065297;28;19916;-64
2023/02/05 01:19:00;;;;;;;;;;;30.10;63.60;;;;;;4358691;28;10000022;-60
2023/02/05 01:21:28;;;;;;;;;;;30.20;63.00;;;;;;5062783;28;19908;-65
2023/02/05 01:23:56;;;;;;;;;;;30.20;64.40;;;;;;5063171;28;19908;-59
2023/02/05 01:26:22;;;;;;;;;;;30.40;62.40;;;;;;5057743;28;19916;-64
2023/02/05 01:28:49;;;;;;;;;;;30.80;63.60;;;;;;5060514;28;20446;-61
2023/02/05 01:31:15;;;;;;;;;;;31.10;61.20;;;;;;5062010;28;20459;-68
2023/02/05 01:33:42;;;;;;;;;;;31.20;61.30;;;;;;5060024;28;19908;-58
2023/02/05 01:36:08;;;;;;;;;;;31.30;62.60;;;;;;5060670;28;19912;-60
2023/02/05 01:38:34;;;;;;;;;;;31.60;63.20;;;;;;5062189;28;20004;-64
2023/02/05 01:41:01;;;;;;;;;;;31.40;60.70;;;;;;5061085;28;19912;-59
2023/02/05 01:43:27;;;;;;;;;;;31.10;62.20;;;;;;5060308;28;19912;-59
2023/02/05 01:45:57;;;;;;;;;;;31.20;62.10;;;;;;5058317;28;19919;-65
2023/02/05 01:48:26;;;;;;;;;;;31.40;61.20;;;;;;5058647;28;19912;-65
2023/02/05 01:51:00;;;;;;;;;;;31.60;61.80;;;;;;5061639;28;19963;-59
2023/02/05 01:53:32;;;;;;;;;;;31.50;61.30;;;;;;5063432;28;20413;-65
2023/02/05 01:56:04;;;;;;;;;;;31.80;60.00;;;;;;5046964;28;19912;-59
2023/02/05 01:58:33;;;;;;;;;;;31.60;61.30;;;;;;5065323;28;19977;-64
2023/02/05 02:00:59;;;;;;;;;;;31.70;63.20;;;;;;5049303;28;19908;-58
2023/02/05 02:03:29;;;;;;;;;;;31.60;60.10;;;;;;5064121;28;19916;-64
2023/02/05 02:05:56;;;;;;;;;;;31.60;59.80;;;;;;5063748;28;19978;-63
2023/02/05 02:08:22;;;;;;;;;;;31.90;59.30;;;;;;5064693;28;20378;-64
2023/02/05 02:10:50;;;;;;;;;;;32.10;61.80;;;;;;5064484;28;19998;-57
2023/02/05 02:13:19;;;;;;;;;;;32.60;60.50;;;;;;5064575;28;20629;-63
2023/02/05 02:15:45;;;;;;;;;;;32.90;61.60;;;;;;5065880;28;19973;-59
2023/02/05 02:18:27;;;;;;;;;;;33.20;61.50;;;;;;5060176;28;19916;-59
2023/02/05 02:21:02;;;;;;;;;;;32.90;59.00;;;;;;5066068;28;19908;-60
2023/02/05 02:23:47;;;;;;;;;;;32.60;61.60;;;;;;5064027;28;19913;-58
2023/02/05 02:26:26;;;;;;;;;;;32.50;59.90;;;;;;5062955;28;19912;-59
2023/02/05 02:28:59;;;;;;;;;;;32.50;60.20;;;;;;5063750;28;19939;-64
2023/02/05 02:31:25;;;;;;;;;;;32.90;60.80;;;;;;5065293;28;20035;-62
2023/02/05 02:33:52;;;;;;;;;;;33.30;59.80;;;;;;5065569;28;20003;-67
2023/02/05 02:36:29;;;;;;;;;;;33.50;58.10;;;;;;5047170;28;19978;-60
2023/02/05 02:39:08;;;;;;;;;;;33.40;60.10;;;;;;5063997;28;20446;-66
2023/02/05 02:42:06;;;;;;;;;;;33.60;60.40;;;;;;5063148;28;19923;-64
2023/02/05 02:44:36;;;;;;;;;;;33.60;58.10;;;;;;4961415;28;19914;-58
2023/02/05 02:47:06;;;;;;;;;;;33.30;59.00;;;;;;4961276;28;20100;-60
2023/02/05 02:49:44;;;;;;;;;;;33.60;60.50;;;;;;4963457;28;19910;-66
2023/02/05 02:52:12;;;;;;;;;;;34.00;59.70;;;;;;4960442;28;20001;-59
2023/02/05 02:54:40;;;;;;;;;;;34.60;60.30;;;;;;4963071;28;20707;-63
2023/02/05 02:57:07;;;;;;;;;;;34.50;57.80;;;;;;4963861;28;19918;-62
2023/02/05 02:59:35;;;;;;;;;;;34.40;57.70;;;;;;4965341;28;19996;-58
2023/02/05 03:02:03;;;;;;;;;;;34.10;56.60;;;;;;4965149;28;20641;-66
2023/02/05 03:04:32;;;;;;;;;;;33.60;58.50;;;;;;4967535;28;19909;-60
2023/02/05 03:07:04;;;;;;;;;;;33.60;59.50;;;;;;4970101;28;21479;-66
2023/02/05 03:09:50;;;;;;;;;;;33.70;59.80;;;;;;4962302;28;19914;-66
2023/02/05 03:12:17;;;;;;;;;;;34.00;58.10;;;;;;4963606;28;19914;-59
2023/02/05 03:14:43;;;;;;;;;;;34.10;59.20;;;;;;4964985;28;19937;-64
2023/02/05 03:17:17;;;;;;;;;;;34.30;57.40;;;;;;4964220;28;20016;-58
2023/02/05 03:19:48;;;;;;;;;;;34.10;58.30;;;;;;4991928;28;19916;-66
2023/02/05 03:22:14;;;;;;;;;;;34.10;58.10;;;;;;5065124;28;19966;-65
2023/02/05 03:24:41;;;;;;;;;;;34.00;57.50;;;;;;5065719;28;20453;-67
2023/02/05 03:27:07;;;;;;;;;;;34.40;59.10;;;;;;5067146;28;20633;-59
2023/02/05 03:29:35;;;;;;;;;;;34.80;60.10;;;;;;5062904;28;19908;-63
2023/02/05 03:32:05;;;;;;;;;;;35.50;59.00;;;;;;5065505;28;19912;-62
2023/02/05 03:34:49;;;;;;;;;;;36.00;56.40;;;;;;5065859;28;19912;-68
2023/02/05 03:37:20;;;;;;;;;;;35.70;59.20;;;;;;5063782;28;20376;-68
2023/02/05 03:40:05;;;;;;;;;;;35.90;58.60;;;;;;5065455;28;20403;-63
2023/02/05 03:42:35;;;;;;;;;;;35.80;55.40;;;;;;5066010;28;19963;-68
2023/02/05 03:45:14;;;;;;;;;;;35.60;56.40;;;;;;5065733;28;19947;-63
2023/02/05 03:47:59;;;;;;;;;;;35.90;57.50;;;;;;5062715;28;19912;-61
2023/02/05 03:50:25;;;;;;;;;;;36.30;57.00;;;;;;5064428;28;19912;-62
2023/02/05 03:52:56;;;;;;;;;;;35.60;55.90;;;;;;5065902;28;20399;-64
2023/02/05 03:55:26;;;;;;;;;;;35.70;56.30;;;;;;5064464;28;19915;-61
2023/02/05 03:57:58;;;;;;;;;;;35.70;55.60;;;;;;5065729;28;19913;-61
2023/02/05 04:00:24;;;;;;;;;;;35.20;55.80;;;;;;5063992;28;20264;-65
2023/02/05 04:02:51;;;;;;;;;;;35.20;57.50;;;;;;5062588;28;20425;-68
2023/02/05 04:05:21;;;;;;;;;;;35.60;56.70;;;;;;5065835;28;19916;-60
2023/02/05 04:07:48;;;;;;;;;;;35.70;55.70;;;;;;5065794;28;19999;-64
2023/02/05 04:10:15;;;;;;;;;;;35.70;56.40;;;;;;5066158;28;19917;-62
2023/02/05 04:12:42;;;;;;;;;;;35.60;55.60;;;;;;5065628;28;20029;-65
2023/02/05 04:15:11;;;;;;;;;;;35.60;54.60;;;;;;5064941;28;19912;-61
2023/02/05 04:17:38;;;;;;;;;;;35.50;55.30;;;;;;5066343;28;19920;-64
2023/02/05 04:20:05;;;;;;;;;;;35.90;57.10;;;;;;5066151;28;19985;-68
2023/02/05 04:22:31;;;;;;;;;;;36.20;56.80;;;;;;5066327;28;19919;-60
2023/02/05 04:24:57;;;;;;;;;;;36.80;57.40;;;;;;5065972;28;20375;-71
2023/02/05 04:27:24;;;;;;;;;;;36.90;55.40;;;;;;5066808;28;19923;-73
2023/02/05 04:29:50;;;;;;;;;;;37.40;57.30;;;;;;5065754;28;20783;-63
2023/02/05 04:32:16;;;;;;;;;;;37.80;53.60;;;;;;5065962;28;19916;-63
2023/02/05 04:34:43;;;;;;;;;;;38.10;55.30;;;;;;5063912;28;19912;-61
2023/02/05 04:37:09;;;;;;;;;;;38.30;54.80;;;;;;5061469;28;19947;-62
2023/02/05 04:39:36;;;;;;;;;;;37.70;57.00;;;;;;5065700;28;20458;-59
2023/02/05 04:42:02;;;;;;;;;;;37.40;57.80;;;;;;5064587;28;20394;-67
2023/02/05 04:44:28;;;;;;;;;;;36.60;57.60;;;;;;5045381;28;19908;-74
2023/02/05 04:46:55;;;;;;;;;;;36.00;59.30;;;;;;5063786;28;20368;-69
2023/02/05 04:49:21;;;;;;;;;;;35.80;58.80;;;;;;5064851;28;19937;-59
2023/02/05 04:51:48;;;;;;;;;;;35.30;59.70;;;;;;5064993;28;19995;-60
2023/02/05 04:54:14;;;;;;;;;;;35.10;60.60;;;;;;5063776;28;19955;-66
2023/02/05 04:56:40;;;;;;;;;;;35.50;60.80;;;;;;5063402;28;19920;-63
2023/02/05 04:59:07;;;;;;;;;;;35.50;61.00;;;;;;5065392;28;19924;-62
2023/02/05 05:01:33;;;;;;;;;;;35.90;60.60;;;;;;5047108;28;20280;-67
2023/02/05 05:03:59;;;;;;;;;;;36.00;60.30;;;;;;5065324;28;19908;-68
2023/02/05 05:06:26;;;;;;;;;;;36.10;60.40;;;;;;5064675;28;19918;-63
2023/02/05 05:08:53;;;;;;;;;;;35.90;59.90;;;;;;5064021;28;19908;-59
2023/02/05 05:11:19;;;;;;;;;;;35.10;60.90;;;;;;5047353;28;19923;-68
2023/02/05 05:13:47;;;;;;;;;;;34.70;61.10;;;;;;5065542;28;19912;-66
2023/02/05 05:16:14;;;;;;;;;;;35.10;62.80;;;;;;5062281;28;20380;-63
2023/02/05 05:18:40;;;;;;;;;;;35.30;62.00;;;;;;5064422;28;19912;-61
2023/02/05 05:21:07;;;;;;;;;;;35.50;62.10;;;;;;5064183;28;20780;-60
2023/02/05 05:23:34;;;;;;;;;;;35.90;60.70;;;;;;5061795;28;20374;-73
2023/02/05 05:26:02;;;;;;;;;;;36.00;60.80;;;;;;5065448;28;19919;-68
2023/02/05 05:28:32;;;;;;;;;;;35.90;61.40;;;;;;5064694;28;20030;-61
2023/02/05 05:30:59;;;;;;;;;;;36.10;61.70;;;;;;5062182;28;19965;-63
2023/02/05 05:33:26;;;;;;;;;;;35.90;60.10;;;;;;5060643;28;20399;-60
2023/02/05 05:35:52;;;;;;;;;;;34.90;60.70;;;;;;5061714;28;19912;-62
2023/02/05 05:38:19;;;;;;;;;;;34.50;62.40;;;;;;5062614;28;19969;-65
2023/02/05 05:43:45;;;;;;;;;;;34.00;62.70;;;;;;5063318;28;19926;-64
2023/02/05 05:46:12;;;;;;;;;;;34.50;62.60;;;;;;5065113;28;19912;-60
2023/02/05 05:48:38;;;;;;;;;;;33.80;62.00;;;;;;5063830;28;19915;-66
2023/02/05 05:51:05;;;;;;;;;;;33.50;63.60;;;;;;5065367;28;19982;-59
2023/02/05 05:53:31;;;;;;;;;;;33.80;63.50;;;;;;5064467;28;19908;-66
2023/02/05 05:55:58;;;;;;;;;;;33.90;61.60;;;;;;5064556;28;20273;-59
2023/02/05 05:58:24;;;;;;;;;;;33.90;61.70;;;;;;5046666;28;19920;-60
2023/02/05 06:00:51;;;;;;;;;;;34.10;62.30;;;;;;5064810;28;20283;-60
2023/02/05 06:03:17;;;;;;;;;;;34.40;62.90;;;;;;5061133;28;20015;-71
2023/02/05 06:05:43;;;;;;;;;;;34.80;62.40;;;;;;5061644;28;19923;-61
2023/02/05 06:08:10;;;;;;;;;;;35.10;62.00;;;;;;5063288;28;20020;-64
2023/02/05 06:10:36;;;;;;;;;;;35.50;61.10;;;;;;5063962;28;19965;-63
2023/02/05 06:13:02;;;;;;;;;;;35.20;60.40;;;;;;5064206;28;20289;-64
2023/02/05 06:15:29;;;;;;;;;;;34.80;61.90;;;;;;5064406;28;20011;-62
2023/02/05 06:17:55;;;;;;;;;;;34.40;60.40;;;;;;5063486;28;20539;-62
2023/02/05 06:20:22;;;;;;;;;;;33.70;62.60;;;;;;5059924;28;19975;-63
2023/02/05 06:22:48;;;;;;;;;;;33.30;62.60;;;;;;5064050;28;19995;-63
2023/02/05 06:25:15;;;;;;;;;;;33.50;63.30;;;;;;5064781;28;19908;-64
2023/02/05 06:27:41;;;;;;;;;;;33.90;62.80;;;;;;5064068;28;19991;-62
2023/02/05 06:30:08;;;;;;;;;;;33.60;61.90;;;;;;5062413;28;19919;-62
2023/02/05 06:32:34;;;;;;;;;;;33.20;63.10;;;;;;5063583;28;19909;-64
2023/02/05 06:35:00;;;;;;;;;;;33.50;63.20;;;;;;5065390;28;20342;-64
2023/02/05 06:37:28;;;;;;;;;;;34.20;64.60;;;;;;5065727;28;19916;-64
2023/02/05 06:39:55;;;;;;;;;;;34.70;62.60;;;;;;5068689;28;19982;-64
2023/02/05 06:42:21;;;;;;;;;;;35.10;62.40;;;;;;5052803;28;19912;-64
2023/02/05 06:44:47;;;;;;;;;;;35.40;61.70;;;;;;5064416;28;19952;-62
2023/02/05 06:47:14;;;;;;;;;;;35.20;61.90;;;;;;5067103;28;19973;-63
2023/02/05 06:49:40;;;;;;;;;;;35.00;61.30;;;;;;5068244;28;19912;-64
2023/02/05 06:52:06;;;;;;;;;;;35.20;63.30;;;;;;5067453;28;19930;-64
2023/02/05 06:54:33;;;;;;;;;;;34.50;61.80;;;;;;5067198;28;19927;-64
2023/02/05 06:56:59;;;;;;;;;;;34.00;62.00;;;;;;5050175;28;19946;-62
2023/02/05 06:59:25;;;;;;;;;;;34.30;62.40;;;;;;5067806;28;19920;-62
2023/02/05 07:01:52;;;;;;;;;;;34.50;63.00;;;;;;5067239;28;20393;-67
2023/02/05 07:04:18;;;;;;;;;;;35.10;66.40;;;;;;5068479;28;19923;-63
2023/02/05 07:06:45;;;;;;;;;;;35.70;62.00;;;;;;5061304;28;19908;-68
2023/02/05 07:09:11;;;;;;;;;;;36.10;62.10;;;;;;5067237;28;19993;-66
2023/02/05 07:11:37;;;;;;;;;;;36.10;60.60;;;;;;5068270;28;19990;-61
2023/02/05 07:14:04;;;;;;;;;;;35.40;61.90;;;;;;5067123;28;19912;-68
2023/02/05 07:16:30;;;;;;;;;;;35.50;60.90;;;;;;5068135;28;19920;-66
2023/02/05 07:18:57;;;;;;;;;;;35.90;63.10;;;;;;5067483;28;19912;-65
2023/02/05 07:21:23;;;;;;;;;;;35.30;61.30;;;;;;5067878;28;19970;-61
2023/02/05 07:23:50;;;;;;;;;;;34.70;62.60;;;;;;5067327;28;19939;-61
2023/02/05 07:26:17;;;;;;;;;;;34.50;62.00;;;;;;5065370;28;19912;-60
2023/02/05 07:28:43;;;;;;;;;;;33.90;62.90;;;;;;5066528;28;19965;-60
2023/02/05 07:31:14;;;;;;;;;;;33.40;64.10;;;;;;5068145;28;19979;-66
2023/02/05 07:33:41;;;;;;;;;;;33.50;63.60;;;;;;5068081;28;20396;-67
2023/02/05 07:36:12;;;;;;;;;;;33.60;64.20;;;;;;5049810;28;19954;-67
2023/02/05 07:38:38;;;;;;;;;;;33.70;64.30;;;;;;5066427;28;20549;-67
2023/02/05 07:41:06;;;;;;;;;;;34.40;64.20;;;;;;5066286;28;19916;-65
2023/02/05 07:43:33;;;;;;;;;;;34.70;62.60;;;;;;5065700;28;20356;-68
2023/02/05 07:46:01;;;;;;;;;;;34.50;63.50;;;;;;5066792;28;19913;-61
2023/02/05 07:48:28;;;;;;;;;;;34.10;62.40;;;;;;5064769;28;20381;-60
2023/02/05 07:50:54;;;;;;;;;;;33.80;63.30;;;;;;5067198;28;19915;-62
2023/02/05 07:53:21;;;;;;;;;;;34.00;63.10;;;;;;5066519;28;19913;-64
2023/02/05 07:55:47;;;;;;;;;;;34.10;62.60;;;;;;5066846;28;19953;-61
2023/02/05 07:58:14;;;;;;;;;;;34.20;63.70;;;;;;5066293;28;20292;-67
2023/02/05 08:00:43;;;;;;;;;;;34.40;63.10;;;;;;5066284;28;20430;-66
2023/02/05 08:03:09;;;;;;;;;;;34.60;62.50;;;;;;5067292;28;19962;-65
2023/02/05 08:05:36;;;;;;;;;;;34.40;62.70;;;;;;5067473;28;20422;-60
2023/02/05 08:08:03;;;;;;;;;;;34.20;63.00;;;;;;5065970;28;20348;-60
2023/02/05 08:10:29;;;;;;;;;;;33.10;64.20;;;;;;5059710;28;20449;-66
2023/02/05 08:12:56;;;;;;;;;;;32.90;66.80;;;;;;5066793;28;19943;-60
2023/02/05 08:15:22;;;;;;;;;;;32.80;65.60;;;;;;5064118;28;19940;-67
2023/02/05 08:17:49;;;;;;;;;;;32.50;66.10;;;;;;5062003;28;19912;-66
2023/02/05 08:20:15;;;;;;;;;;;32.30;67.40;;;;;;5063340;28;19918;-62
2023/02/05 08:22:42;;;;;;;;;;;32.10;66.60;;;;;;5063929;28;19918;-65
2023/02/05 08:25:10;;;;;;;;;;;31.40;68.80;;;;;;5063091;28;19922;-68
2023/02/05 08:27:38;;;;;;;;;;;30.60;69.30;;;;;;5058765;28;20302;-63
2023/02/05 08:30:06;;;;;;;;;;;29.80;71.20;;;;;;5059529;28;19912;-67
2023/02/05 08:32:33;;;;;;;;;;;29.70;72.10;;;;;;5060555;28;20620;-69
2023/02/05 08:35:00;;;;;;;;;;;29.20;72.60;;;;;;5061280;28;19910;-65
2023/02/05 08:37:26;;;;;;;;;;;28.70;73.70;;;;;;5059568;28;20287;-67
2023/02/05 08:39:53;;;;;;;;;;;28.00;75.80;;;;;;5059658;28;20018;-68
2023/02/05 08:42:19;;;;;;;;;;;27.30;76.90;;;;;;5059713;28;19912;-60
2023/02/05 08:44:47;;;;;;;;;;;26.80;78.90;;;;;;5060654;28;20221;-59
2023/02/05 08:47:13;;;;;;;;;;;26.40;80.00;;;;;;5058871;28;19913;-66
2023/02/05 08:49:40;;;;;;;;;;;26.10;81.00;;;;;;5060878;28;19919;-61
2023/02/05 08:52:06;;;;;;;;;;;25.90;82.30;;;;;;5059617;28;19916;-61
2023/02/05 08:54:32;;;;;;;;;;;25.70;83.30;;;;;;5059405;28;19912;-69
2023/02/05 08:56:59;;;;;;;;;;;25.40;84.50;;;;;;5059552;28;19969;-67
2023/02/05 08:59:25;;;;;;;;;;;25.10;85.50;;;;;;5059625;28;19924;-62
2023/02/05 09:01:52;;;;;;;;;;;25.00;86.60;;;;;;5059486;28;19951;-59
2023/02/05 09:04:29;;;;;;;;;;;24.90;86.90;;;;;;5055723;28;20329;-70
2023/02/05 09:06:56;;;;;;;;;;;24.80;87.80;;;;;;5057854;28;20285;-68
2023/02/05 09:09:22;;;;;;;;;;;24.60;90.10;;;;;;5058939;28;19919;-69
2023/02/05 09:11:49;;;;;;;;;;;24.60;90.50;;;;;;5059349;28;20316;-61
2023/02/05 09:14:16;;;;;;;;;;;24.50;91.10;;;;;;5059791;28;20217;-64
2023/02/05 09:16:42;;;;;;;;;;;24.40;91.10;;;;;;5058201;28;19916;-61
2023/02/05 09:19:09;;;;;;;;;;;24.30;91.30;;;;;;5055098;28;19916;-64
2023/02/05 09:21:35;;;;;;;;;;;24.40;91.20;;;;;;5060300;28;20352;-63
2023/02/05 09:24:02;;;;;;;;;;;24.20;91.30;;;;;;5057738;28;20015;-60
2023/02/05 09:26:28;;;;;;;;;;;24.10;91.90;;;;;;5057655;28;19912;-63
2023/02/05 09:28:54;;;;;;;;;;;24.00;92.10;;;;;;5059446;28;19928;-66
2023/02/05 09:31:21;;;;;;;;;;;23.90;92.50;;;;;;5056686;28;19930;-62
2023/02/05 09:33:48;;;;;;;;;;;23.90;93.00;;;;;;5055654;28;20037;-61
2023/02/05 09:36:19;;;;;;;;;;;23.90;93.30;;;;;;5056991;28;20326;-66
2023/02/05 09:38:46;;;;;;;;;;;23.90;93.40;;;;;;5060154;28;20583;-66
2023/02/05 09:41:12;;;;;;;;;;;23.80;93.70;;;;;;5059254;28;20152;-63
2023/02/05 09:43:48;;;;;;;;;;;23.50;94.00;;;;;;5059977;28;19958;-59
2023/02/05 09:46:18;;;;;;;;;;;23.40;94.60;;;;;;5054125;28;20298;-67
2023/02/05 09:48:52;;;;;;;;;;;23.30;95.70;;;;;;5058202;28;19919;-65
2023/02/05 09:51:28;;;;;;;;;;;23.40;95.80;;;;;;5059936;28;20302;-67
2023/02/05 09:53:57;;;;;;;;;;;23.30;95.90;;;;;;5061540;28;20391;-60
2023/02/05 09:56:25;;;;;;;;;;;23.30;96.50;;;;;;5059220;28;19912;-62
2023/02/05 09:58:53;;;;;;;;;;;23.20;96.80;;;;;;5092651;22;20373;-63
2023/02/05 10:01:35;;;;;;;;;;;23.10;97.20;;;;;;5046911;28;19952;-63
2023/02/05 10:04:04;;;;;;;;;;;23.20;97.80;;;;;;5040787;28;20007;-58
2023/02/05 10:06:40;;;;;;;;;;;23.20;98.70;;;;;;5042833;28;20452;-62
2023/02/05 10:09:15;;;;;;;;;;;23.30;98.50;;;;;;5042042;28;20318;-63
2023/02/05 10:11:44;;;;;;;;;;;23.20;99.00;;;;;;5047242;28;20293;-65
2023/02/05 10:14:29;;;;;;;;;;;23.30;99.00;;;;;;5044844;28;20021;-68
2023/02/05 10:16:55;;;;;;;;;;;23.30;99.20;;;;;;5046169;28;20503;-60
2023/02/05 10:19:40;;;;;;;;;;;23.20;99.80;;;;;;5047629;28;19971;-60
2023/02/05 10:22:20;;;;;;;;;;;23.10;99.90;;;;;;5038518;28;19999;-61
2023/02/05 10:24:55;;;;;;;;;;;23.10;99.90;;;;;;5032412;28;20589;-59
2023/02/05 10:27:23;;;;;;;;;;;23.00;99.90;;;;;;5034400;28;20308;-62
2023/02/05 10:30:04;;;;;;;;;;;23.00;99.90;;;;;;5032616;28;19913;-62
2023/02/05 10:32:42;;;;;;;;;;;22.90;99.90;;;;;;5030892;28;20373;-63
2023/02/05 10:35:09;;;;;;;;;;;22.90;99.90;;;;;;5036219;28;20356;-60
2023/02/05 10:37:42;;;;;;;;;;;22.80;99.90;;;;;;5034692;28;19924;-63
2023/02/05 10:40:16;;;;;;;;;;;22.70;99.90;;;;;;5033622;28;19981;-61
2023/02/05 10:43:01;;;;;;;;;;;22.70;99.90;;;;;;5031596;28;19912;-65
2023/02/05 10:45:28;;;;;;;;;;;22.80;99.90;;;;;;5035781;28;20413;-66
2023/02/05 10:47:58;;;;;;;;;;;22.80;99.90;;;;;;5034936;28;19923;-59
2023/02/05 10:50:42;;;;;;;;;;;22.70;99.90;;;;;;5031750;28;19944;-61
2023/02/05 10:53:09;;;;;;;;;;;22.70;99.90;;;;;;5035579;28;19967;-60
2023/02/05 10:55:35;;;;;;;;;;;22.90;99.90;;;;;;5032760;28;20000;-67
2023/02/05 10:58:21;;;;;;;;;;;22.80;99.90;;;;;;5030871;28;20621;-62
2023/02/05 11:00:48;;;;;;;;;;;22.80;99.90;;;;;;5051717;28;19954;-61
2023/02/05 11:03:19;;;;;;;;;;;22.80;99.90;;;;;;5048806;28;19912;-67
2023/02/05 11:05:46;;;;;;;;;;;22.90;99.90;;;;;;5052958;28;19912;-68
2023/02/05 11:08:30;;;;;;;;;;;22.90;99.90;;;;;;5051478;28;19908;-59
2023/02/05 11:10:57;;;;;;;;;;;23.00;99.90;;;;;;5047962;28;19912;-68
2023/02/05 11:13:24;;;;;;;;;;;23.00;99.90;;;;;;5055102;28;19980;-67
2023/02/05 11:15:58;;;;;;;;;;;23.00;99.90;;;;;;5049722;28;20019;-68
2023/02/05 11:18:29;;;;;;;;;;;23.10;99.90;;;;;;5047931;28;20805;-62
2023/02/05 11:21:00;;;;;;;;;;;23.20;99.90;;;;;;5054631;28;19989;-63
2023/02/05 11:23:37;;;;;;;;;;;23.20;99.90;;;;;;5055868;28;20029;-67
2023/02/05 11:26:30;;;;;;;;;;;23.10;99.90;;;;;;5048557;28;19924;-59
2023/02/05 11:28:57;;;;;;;;;;;23.00;99.90;;;;;;5051533;28;19912;-67
2023/02/05 11:31:27;;;;;;;;;;;23.10;99.90;;;;;;5053376;28;19957;-59
2023/02/05 11:34:10;;;;;;;;;;;23.00;99.90;;;;;;5050917;28;19946;-64
2023/02/05 11:36:38;;;;;;;;;;;22.80;99.90;;;;;;5052625;28;20364;-64
2023/02/05 11:39:05;;;;;;;;;;;22.80;99.90;;;;;;5054699;28;19970;-64
2023/02/05 11:41:46;;;;;;;;;;;22.80;99.90;;;;;;5053910;28;20359;-63
2023/02/05 11:44:23;;;;;;;;;;;22.70;99.90;;;;;;5052293;28;20282;-60
2023/02/05 11:46:55;;;;;;;;;;;22.70;99.90;;;;;;5053236;28;19909;-61
2023/02/05 11:49:28;;;;;;;;;;;22.70;99.90;;;;;;5052580;28;19913;-64
2023/02/05 11:51:55;;;;;;;;;;;22.60;99.90;;;;;;5051946;28;20297;-64
2023/02/05 11:54:25;;;;;;;;;;;22.80;99.90;;;;;;5055419;28;20264;-63
2023/02/05 11:57:09;;;;;;;;;;;22.70;99.90;;;;;;5049446;28;19917;-61
2023/02/05 11:59:36;;;;;;;;;;;22.90;99.90;;;;;;5050577;28;20393;-68
2023/02/05 12:02:22;;;;;;;;;;;22.90;99.90;;;;;;5058615;28;19912;-67
2023/02/05 12:04:49;;;;;;;;;;;22.90;99.90;;;;;;5053885;28;19939;-65
2023/02/05 12:07:17;;;;;;;;;;;22.80;99.90;;;;;;5060783;28;19912;-64
2023/02/05 12:09:46;;;;;;;;;;;22.80;99.90;;;;;;5051551;28;20019;-63
2023/02/05 12:12:32;;;;;;;;;;;22.80;99.90;;;;;;5050495;28;19913;-65
2023/02/05 12:15:04;;;;;;;;;;;22.90;99.90;;;;;;5056058;28;19912;-64
2023/02/05 12:17:40;;;;;;;;;;;22.90;99.90;;;;;;5059308;28;19922;-61
2023/02/05 12:20:06;;;;;;;;;;;22.90;99.90;;;;;;5048623;28;19920;-64
2023/02/05 12:22:53;;;;;;;;;;;22.90;99.90;;;;;;5050948;28;19916;-61
2023/02/05 12:25:22;;;;;;;;;;;22.90;99.90;;;;;;5051108;28;19916;-60
2023/02/05 12:27:55;;;;;;;;;;;22.80;99.90;;;;;;5055042;28;19965;-64
2023/02/05 12:30:31;;;;;;;;;;;22.80;99.90;;;;;;5059813;28;19908;-68
2023/02/05 12:33:06;;;;;;;;;;;22.70;99.90;;;;;;5061563;28;20086;-63
2023/02/05 12:35:57;;;;;;;;;;;22.50;99.90;;;;;;5055422;28;20296;-61
2023/02/05 12:38:27;;;;;;;;;;;22.60;99.90;;;;;;5053299;28;19929;-67
2023/02/05 12:40:53;;;;;;;;;;;22.50;99.90;;;;;;5056463;28;19917;-62
2023/02/05 12:43:20;;;;;;;;;;;22.50;99.90;;;;;;5055238;28;19920;-64
2023/02/05 12:46:03;;;;;;;;;;;22.60;99.90;;;;;;5056537;28;19905;-60
2023/02/05 12:48:39;;;;;;;;;;;22.60;99.90;;;;;;5046737;28;19908;-60
2023/02/05 12:51:09;;;;;;;;;;;22.40;99.90;;;;;;5051382;28;19904;-60
2023/02/05 12:53:42;;;;;;;;;;;22.40;99.90;;;;;;5057001;28;19915;-67
2023/02/05 12:56:14;;;;;;;;;;;22.40;99.90;;;;;;5055992;28;20012;-63
2023/02/05 12:58:42;;;;;;;;;;;22.20;99.90;;;;;;5055504;28;19928;-63
2023/02/05 13:01:20;;;;;;;;;;;22.10;99.90;;;;;;5055153;28;20396;-68
2023/02/05 13:03:50;;;;;;;;;;;22.10;99.90;;;;;;5059737;28;19939;-67
2023/02/05 13:06:42;;;;;;;;;;;22.00;99.90;;;;;;5056972;28;20343;-63
2023/02/05 13:09:17;;;;;;;;;;;22.10;99.90;;;;;;5056579;28;19908;-68
2023/02/05 13:11:50;;;;;;;;;;;22.10;99.90;;;;;;5056350;28;20019;-64
2023/02/05 13:14:19;;;;;;;;;;;22.10;99.90;;;;;;5058603;28;20008;-67
2023/02/05 13:16:54;;;;;;;;;;;22.10;99.90;;;;;;5058527;28;19908;-67
2023/02/05 13:19:32;;;;;;;;;;;22.10;99.90;;;;;;5055053;28;19908;-63
2023/02/05 13:30:50;;;;;;;;;;;22.40;99.90;;;;;;5061353;28;19931;-61
2023/02/05 13:33:16;;;;;;;;;;;22.50;99.90;;;;;;5057654;28;19953;-61
2023/02/05 13:35:45;;;;;;;;;;;22.50;99.90;;;;;;5056749;28;19935;-63
2023/02/05 13:38:17;;;;;;;;;;;22.60;99.90;;;;;;5053163;28;20588;-63
2023/02/05 13:40:53;;;;;;;;;;;22.60;99.90;;;;;;5055910;28;19917;-63
2023/02/05 13:43:38;;;;;;;;;;;22.60;99.90;;;;;;5055603;28;19939;-64
2023/02/05 13:46:07;;;;;;;;;;;22.50;99.90;;;;;;5054707;28;19923;-63
2023/02/05 13:48:36;;;;;;;;;;;22.70;99.90;;;;;;5058220;28;20007;-67
2023/02/05 13:51:03;;;;;;;;;;;22.60;99.90;;;;;;5062255;28;19912;-67
2023/02/05 13:53:29;;;;;;;;;;;22.60;99.90;;;;;;5058528;28;19912;-61
2023/02/05 13:55:56;;;;;;;;;;;22.60;99.90;;;;;;5062011;28;19909;-64
2023/02/05 13:58:24;;;;;;;;;;;22.70;99.90;;;;;;5060291;28;19930;-63
2023/02/05 14:01:01;;;;;;;;;;;22.70;99.90;;;;;;5065315;28;19912;-63
2023/02/05 14:03:38;;;;;;;;;;;22.50;99.90;;;;;;5062104;28;20288;-63
2023/02/05 14:06:30;;;;;;;;;;;22.60;99.90;;;;;;5063310;28;20004;-62
2023/02/05 14:09:02;;;;;;;;;;;22.60;99.90;;;;;;5055258;28;19944;-62
2023/02/05 14:11:41;;;;;;;;;;;22.60;99.90;;;;;;5062551;28;20283;-60
2023/02/05 14:14:17;;;;;;;;;;;22.60;99.90;;;;;;5062956;28;19963;-64
2023/02/05 14:16:45;;;;;;;;;;;22.50;99.90;;;;;;5065098;28;19912;-67
2023/02/05 14:19:11;;;;;;;;;;;22.50;99.90;;;;;;5066143;28;19932;-60
2023/02/05 14:21:44;;;;;;;;;;;22.40;99.90;;;;;;5060741;28;19913;-67
2023/02/05 14:24:29;;;;;;;;;;;22.40;99.90;;;;;;5057646;28;19910;-63
2023/02/05 14:26:58;;;;;;;;;;;22.30;99.90;;;;;;5062547;28;20217;-63
2023/02/05 14:29:36;;;;;;;;;;;22.20;99.90;;;;;;5063041;28;19913;-67
2023/02/05 14:32:03;;;;;;;;;;;22.20;99.90;;;;;;5052266;28;19909;-67
2023/02/05 14:34:32;;;;;;;;;;;22.20;99.90;;;;;;5058601;28;19912;-64
2023/02/05 14:36:59;;;;;;;;;;;22.20;99.90;;;;;;5059366;28;20369;-63
2023/02/05 14:39:32;;;;;;;;;;;22.10;99.90;;;;;;5061448;28;19960;-67
2023/02/05 14:41:59;;;;;;;;;;;22.20;99.90;;;;;;5058776;28;19981;-60